createdAt,value
2023-12-03T00:00:33.537Z,48.48
2023-12-03T00:03:22.715Z,48.10
2023-12-03T00:06:11.626Z,47.82
2023-12-03T00:09:00.598Z,48.49
2023-12-03T00:11:49.316Z,48.30
2023-12-03T00:14:39.390Z,48.27
2023-12-03T00:17:28.298Z,48.02
2023-12-03T00:20:17.438Z,48.39
2023-12-03T00:23:06.149Z,48.34
2023-12-03T00:25:55.019Z,48.15
2023-12-03T00:28:44.170Z,48.00
2023-12-03T00:31:35.423Z,48.31
2023-12-03T00:34:24.163Z,47.85
2023-12-03T00:37:12.897Z,47.75
2023-12-03T00:40:01.762Z,48.33
2023-12-03T00:42:52.879Z,48.16
2023-12-03T00:45:42.981Z,48.10
2023-12-03T00:48:33.156Z,47.74
2023-12-03T00:51:21.885Z,48.11
2023-12-03T00:54:10.751Z,47.93
2023-12-03T00:56:59.433Z,48.37
2023-12-03T00:59:48.156Z,48.35
2023-12-03T01:02:36.925Z,48.33
2023-12-03T01:05:28.037Z,48.52
2023-12-03T01:08:17.463Z,48.43
2023-12-03T01:11:06.757Z,48.57
2023-12-03T01:13:55.399Z,48.62
2023-12-03T01:16:44.081Z,48.72
2023-12-03T01:19:32.746Z,48.83
2023-12-03T01:22:22.773Z,48.29
2023-12-03T01:25:11.617Z,48.08
2023-12-03T01:28:00.387Z,48.30
2023-12-03T01:30:49.270Z,48.41
2023-12-03T01:33:38.084Z,48.15
2023-12-03T01:36:26.849Z,48.62
2023-12-03T01:39:16.855Z,48.77
2023-12-03T01:42:05.952Z,48.58
2023-12-03T01:44:54.718Z,48.34
2023-12-03T01:47:43.714Z,48.24
2023-12-03T01:50:32.372Z,48.57
2023-12-03T01:53:21.403Z,48.47
2023-12-03T01:56:13.763Z,48.47
2023-12-03T01:59:03.181Z,48.40
2023-12-03T02:01:52.017Z,48.39
2023-12-03T02:04:40.782Z,48.61
2023-12-03T02:07:29.517Z,48.42
2023-12-03T02:10:18.324Z,48.73
2023-12-03T02:13:08.530Z,48.48
2023-12-03T02:15:57.149Z,48.30
2023-12-03T02:18:45.972Z,48.37
2023-12-03T02:21:34.788Z,48.15
2023-12-03T02:24:24.970Z,48.29
2023-12-03T02:27:13.543Z,48.23
2023-12-03T02:30:02.240Z,48.37
2023-12-03T02:32:50.995Z,48.41
2023-12-03T02:35:39.742Z,48.22
2023-12-03T02:38:28.410Z,48.11
2023-12-03T02:41:18.469Z,48.74
2023-12-03T02:44:07.095Z,48.50
2023-12-03T02:46:55.697Z,48.78
2023-12-03T02:49:44.377Z,48.39
2023-12-03T02:52:32.990Z,48.78
2023-12-03T02:55:21.611Z,48.60
2023-12-03T02:58:11.870Z,48.55
2023-12-03T03:01:00.486Z,48.67
2023-12-03T03:03:49.404Z,48.67
2023-12-03T03:06:38.910Z,48.33
2023-12-03T03:09:27.636Z,48.76
2023-12-03T03:12:16.403Z,48.25
2023-12-03T03:15:07.229Z,48.40
2023-12-03T03:17:55.929Z,48.58
2023-12-03T03:20:44.835Z,48.86
2023-12-03T03:23:33.570Z,48.61
2023-12-03T03:26:22.207Z,48.79
2023-12-03T03:29:10.907Z,48.48
2023-12-03T03:32:00.880Z,48.16
2023-12-03T03:34:49.519Z,48.44
2023-12-03T03:37:38.208Z,48.74
2023-12-03T03:40:26.953Z,48.94
2023-12-03T03:43:16.127Z,48.30
2023-12-03T03:46:04.914Z,48.69
2023-12-03T03:48:55.624Z,48.75
2023-12-03T03:51:44.402Z,48.77
2023-12-03T03:54:33.191Z,48.84
2023-12-03T03:57:21.866Z,48.53
2023-12-03T04:00:12.106Z,48.76
2023-12-03T04:03:00.744Z,48.71
2023-12-03T04:05:50.702Z,48.40
2023-12-03T04:08:39.318Z,48.26
2023-12-03T04:11:27.971Z,48.76
2023-12-03T04:14:17.928Z,48.51
2023-12-03T04:17:06.537Z,48.81
2023-12-03T04:19:55.145Z,48.87
2023-12-03T04:22:45.484Z,48.51
2023-12-03T04:25:34.121Z,48.89
2023-12-03T04:28:22.831Z,49.02
2023-12-03T04:31:23.148Z,49.32
2023-12-03T04:34:11.952Z,49.00
2023-12-03T04:37:00.652Z,49.09
2023-12-03T04:39:50.589Z,48.79
2023-12-03T04:42:39.334Z,49.11
2023-12-03T04:45:28.095Z,48.83
2023-12-03T04:48:16.819Z,48.89
2023-12-03T04:51:05.830Z,48.97
2023-12-03T04:53:54.550Z,49.01
2023-12-03T04:56:44.678Z,48.52
2023-12-03T04:59:33.394Z,48.82
2023-12-03T05:02:22.117Z,48.25
2023-12-03T05:05:10.798Z,48.61
2023-12-03T05:07:59.490Z,48.86
2023-12-03T05:10:48.146Z,48.97
2023-12-03T05:13:38.270Z,48.40
2023-12-03T05:16:26.883Z,48.47
2023-12-03T05:19:15.966Z,48.63
2023-12-03T05:22:04.937Z,48.75
2023-12-03T05:24:53.661Z,48.56
2023-12-03T05:27:42.328Z,48.86
2023-12-03T05:30:32.344Z,48.53
2023-12-03T05:33:21.137Z,48.86
2023-12-03T05:36:11.384Z,48.73
2023-12-03T05:39:00.043Z,48.39
2023-12-03T05:41:48.694Z,48.50
2023-12-03T05:44:37.358Z,48.61
2023-12-03T05:47:27.400Z,48.50
2023-12-03T05:50:16.087Z,48.74
2023-12-03T05:53:04.952Z,48.66
2023-12-03T05:55:53.722Z,48.45
2023-12-03T05:58:42.359Z,48.44
2023-12-03T06:01:31.328Z,48.44
2023-12-03T06:04:21.501Z,48.53
2023-12-03T06:07:10.255Z,48.76
2023-12-03T06:09:58.942Z,48.78
2023-12-03T06:12:47.686Z,48.87
2023-12-03T06:15:36.345Z,48.70
2023-12-03T06:18:25.151Z,48.32
2023-12-03T06:21:15.242Z,48.92
2023-12-03T06:24:03.877Z,48.34
2023-12-03T06:26:52.475Z,48.50
2023-12-03T06:29:41.419Z,48.60
2023-12-03T06:32:30.191Z,48.75
2023-12-03T06:35:18.932Z,48.77
2023-12-03T06:38:09.029Z,48.50
2023-12-03T06:40:57.640Z,48.58
2023-12-03T06:43:46.331Z,48.31
2023-12-03T06:46:41.679Z,48.26
2023-12-03T06:49:30.534Z,48.58
2023-12-03T06:52:19.282Z,48.62
2023-12-03T06:55:09.911Z,49.05
2023-12-03T06:57:58.595Z,48.92
2023-12-03T07:00:47.608Z,48.92
2023-12-03T07:03:36.320Z,48.59
2023-12-03T07:06:25.606Z,49.04
2023-12-03T07:09:36.768Z,48.77
2023-12-03T07:12:25.771Z,48.88
2023-12-03T07:15:14.697Z,48.67
2023-12-03T07:18:04.466Z,48.62
2023-12-03T07:20:53.119Z,48.79
2023-12-03T07:23:41.801Z,48.86
2023-12-03T07:26:30.568Z,48.88
2023-12-03T07:29:21.806Z,48.41
2023-12-03T07:32:10.482Z,47.76
2023-12-03T07:34:59.306Z,46.30
2023-12-03T07:37:47.969Z,45.85
2023-12-03T07:40:36.715Z,45.37
2023-12-03T07:43:25.358Z,45.12
2023-12-03T07:46:20.431Z,44.63
2023-12-03T07:49:09.217Z,44.58
2023-12-03T07:51:58.425Z,44.14
2023-12-03T07:54:47.165Z,43.31
2023-12-03T07:57:36.205Z,43.11
2023-12-03T08:00:24.926Z,43.06
2023-12-03T08:03:16.146Z,42.50
2023-12-03T08:06:06.302Z,42.49
2023-12-03T08:08:55.920Z,42.36
2023-12-03T08:11:44.640Z,42.48
2023-12-03T08:14:33.347Z,42.54
2023-12-03T08:17:21.975Z,42.98
2023-12-03T08:20:13.355Z,42.52
2023-12-03T08:23:02.551Z,42.34
2023-12-03T08:25:51.322Z,42.81
2023-12-03T08:28:40.392Z,42.85
2023-12-03T08:31:40.362Z,42.52
2023-12-03T08:34:30.073Z,42.19
2023-12-03T08:37:20.408Z,41.80
2023-12-03T08:40:10.923Z,40.81
2023-12-03T08:42:59.806Z,40.43
2023-12-03T08:46:10.963Z,39.94
2023-12-03T08:48:59.831Z,40.61
2023-12-03T08:51:48.941Z,41.78
2023-12-03T08:54:39.069Z,42.98
2023-12-03T08:57:27.937Z,43.15
2023-12-03T09:00:18.048Z,43.53
2023-12-03T09:03:07.721Z,42.25
2023-12-03T09:05:57.087Z,40.48
2023-12-03T09:08:46.368Z,41.35
2023-12-03T09:11:37.108Z,42.41
2023-12-03T09:14:29.070Z,42.55
2023-12-03T09:17:17.740Z,43.31
2023-12-03T09:20:07.605Z,43.10
2023-12-03T09:22:56.309Z,43.18
2023-12-03T09:25:45.154Z,43.65
2023-12-03T09:28:35.950Z,43.89
2023-12-03T09:31:25.781Z,44.14
2023-12-03T09:34:14.548Z,44.12
2023-12-03T09:37:04.114Z,43.89
2023-12-03T09:39:52.927Z,43.96
2023-12-03T09:42:45.991Z,44.26
2023-12-03T09:45:36.280Z,44.56
2023-12-03T09:48:27.747Z,44.22
2023-12-03T09:51:17.136Z,43.99
2023-12-03T09:54:09.966Z,44.49
2023-12-03T09:57:00.354Z,44.53
2023-12-03T09:59:49.922Z,44.42
2023-12-03T10:02:42.267Z,44.66
2023-12-03T10:05:32.460Z,44.74
2023-12-03T10:08:22.250Z,44.42
2023-12-03T10:11:14.178Z,44.61
2023-12-03T10:14:03.208Z,44.57
2023-12-03T10:16:51.960Z,44.60
2023-12-03T10:19:42.078Z,44.85
2023-12-03T10:22:33.697Z,44.69
2023-12-03T10:25:32.781Z,44.89
2023-12-03T10:28:22.838Z,44.86
2023-12-03T10:31:14.050Z,44.89
2023-12-03T10:34:02.770Z,45.25
2023-12-03T10:36:52.990Z,45.25
2023-12-03T10:39:41.632Z,45.32
2023-12-03T10:42:34.283Z,45.22
2023-12-03T10:45:22.989Z,44.92
2023-12-03T10:48:13.516Z,45.02
2023-12-03T10:51:06.423Z,45.34
2023-12-03T10:53:56.562Z,45.07
2023-12-03T10:56:46.109Z,44.85
2023-12-03T10:59:36.476Z,44.81
2023-12-03T11:02:30.538Z,44.86
2023-12-03T11:05:28.939Z,44.78
2023-12-03T11:08:18.204Z,44.88
2023-12-03T11:11:10.659Z,45.12
2023-12-03T11:13:59.813Z,45.12
2023-12-03T11:16:58.813Z,45.12
2023-12-03T11:19:55.844Z,45.05
2023-12-03T11:22:59.147Z,45.36
2023-12-03T11:25:56.676Z,45.26
2023-12-03T11:28:57.842Z,45.08
2023-12-03T11:31:46.677Z,45.49
2023-12-03T11:34:35.546Z,45.20
2023-12-03T11:37:24.736Z,45.24
2023-12-03T11:40:16.363Z,45.12
2023-12-03T11:43:08.062Z,45.18
2023-12-03T11:45:58.215Z,45.18
2023-12-03T11:48:47.142Z,45.30
2023-12-03T11:51:36.951Z,45.71
2023-12-03T11:54:27.968Z,45.59
2023-12-03T11:57:17.593Z,45.45
2023-12-03T12:00:09.383Z,45.19
2023-12-03T12:02:59.535Z,45.20
2023-12-03T12:05:50.426Z,45.23
2023-12-03T12:08:39.178Z,45.40
2023-12-03T12:11:28.060Z,45.52
2023-12-03T12:14:18.424Z,45.57
2023-12-03T12:17:11.380Z,45.53
2023-12-03T12:20:08.989Z,45.53
2023-12-03T12:23:04.631Z,45.31
2023-12-03T12:25:54.448Z,45.38
2023-12-03T12:28:43.189Z,45.82
2023-12-03T12:31:32.156Z,45.97
2023-12-03T12:34:21.993Z,45.85
2023-12-03T12:37:13.460Z,45.81
2023-12-03T12:40:10.123Z,45.42
2023-12-03T12:43:08.330Z,45.27
2023-12-03T12:45:57.591Z,45.39
2023-12-03T12:48:46.751Z,45.47
2023-12-03T12:51:35.499Z,45.65
2023-12-03T12:54:25.581Z,45.67
2023-12-03T12:57:14.783Z,45.45
2023-12-03T13:00:05.030Z,45.65
2023-12-03T13:02:55.576Z,45.62
2023-12-03T13:05:45.090Z,45.76
2023-12-03T13:08:33.758Z,45.53
2023-12-03T13:11:24.712Z,45.79
2023-12-03T13:14:13.397Z,45.84
2023-12-03T13:17:03.060Z,45.70
2023-12-03T13:19:52.008Z,45.83
2023-12-03T13:22:40.977Z,45.60
2023-12-03T13:25:29.593Z,46.02
2023-12-03T13:28:19.907Z,45.94
2023-12-03T13:31:08.725Z,45.46
2023-12-03T13:33:57.441Z,45.98
2023-12-03T13:36:46.540Z,46.02
2023-12-03T13:39:35.300Z,46.00
2023-12-03T13:42:24.177Z,46.00
2023-12-03T13:45:14.390Z,46.01
2023-12-03T13:48:03.211Z,45.90
2023-12-03T13:50:53.111Z,46.06
2023-12-03T13:53:41.940Z,45.66
2023-12-03T13:56:30.595Z,45.81
2023-12-03T13:59:19.214Z,45.79
2023-12-03T14:02:10.645Z,46.27
2023-12-03T14:05:07.858Z,46.26
2023-12-03T14:08:08.035Z,45.85
2023-12-03T14:10:56.627Z,45.96
2023-12-03T14:13:45.352Z,45.90
2023-12-03T14:16:34.878Z,45.86
2023-12-03T14:19:26.032Z,45.91
2023-12-03T14:22:15.477Z,46.09
2023-12-03T14:25:04.650Z,45.79
2023-12-03T14:27:53.480Z,46.11
2023-12-03T14:30:43.834Z,45.86
2023-12-03T14:33:33.195Z,45.57
2023-12-03T14:36:26.983Z,45.75
2023-12-03T14:39:16.999Z,45.68
2023-12-03T14:42:06.252Z,45.83
2023-12-03T14:44:54.882Z,45.61
2023-12-03T14:47:43.619Z,45.63
2023-12-03T14:50:33.223Z,45.94
2023-12-03T14:53:23.246Z,46.00
2023-12-03T14:56:21.695Z,45.83
2023-12-03T14:59:10.444Z,45.72
2023-12-03T15:01:59.119Z,45.80
2023-12-03T15:04:47.864Z,45.55
2023-12-03T15:07:36.832Z,45.92
2023-12-03T15:10:26.985Z,45.92
2023-12-03T15:13:16.242Z,45.74
2023-12-03T15:16:04.971Z,45.59
2023-12-03T15:18:53.954Z,45.79
2023-12-03T15:21:42.714Z,45.90
2023-12-03T15:24:31.405Z,45.80
2023-12-03T15:27:21.842Z,45.69
2023-12-03T15:30:11.725Z,45.77
2023-12-03T15:33:00.445Z,45.99
2023-12-03T15:35:49.118Z,45.86
2023-12-03T15:38:37.821Z,45.93
2023-12-03T15:41:27.480Z,46.02
2023-12-03T15:44:17.554Z,46.01
2023-12-03T15:47:06.745Z,45.67
2023-12-03T15:49:55.511Z,46.00
2023-12-03T15:52:44.276Z,45.92
2023-12-03T15:55:33.088Z,46.13
2023-12-03T15:58:22.931Z,45.98
2023-12-03T16:01:13.774Z,46.21
2023-12-03T16:04:02.483Z,45.85
2023-12-03T16:06:52.037Z,45.97
2023-12-03T16:09:42.849Z,45.94
2023-12-03T16:12:32.419Z,45.79
2023-12-03T16:15:21.262Z,45.87
2023-12-03T16:18:11.558Z,46.06
2023-12-03T16:21:00.328Z,45.92
2023-12-03T16:23:48.997Z,46.14
2023-12-03T16:26:37.769Z,45.93
2023-12-03T16:29:26.514Z,45.98
2023-12-03T16:32:15.563Z,45.95
2023-12-03T16:35:06.969Z,46.15
2023-12-03T16:37:55.787Z,45.74
2023-12-03T16:40:45.398Z,45.63
2023-12-03T16:43:36.480Z,46.08
2023-12-03T16:46:25.258Z,45.73
2023-12-03T16:49:14.541Z,46.07
2023-12-03T16:52:05.246Z,45.96
2023-12-03T16:54:55.127Z,46.19
2023-12-03T16:57:44.009Z,45.97
2023-12-03T17:00:32.751Z,46.27
2023-12-03T17:03:24.210Z,46.17
2023-12-03T17:06:14.461Z,45.99
2023-12-03T17:09:04.522Z,45.76
2023-12-03T17:11:53.692Z,45.99
2023-12-03T17:14:42.501Z,45.85
2023-12-03T17:17:31.777Z,46.09
2023-12-03T17:20:20.516Z,46.06
2023-12-03T17:23:09.459Z,46.24
2023-12-03T17:25:59.530Z,45.86
2023-12-03T17:28:48.288Z,46.38
2023-12-03T17:31:36.904Z,46.26
2023-12-03T17:34:25.653Z,46.37
2023-12-03T17:37:16.508Z,46.20
2023-12-03T17:40:07.126Z,46.22
2023-12-03T17:42:57.587Z,46.32
2023-12-03T17:45:49.730Z,46.16
2023-12-03T17:48:38.502Z,45.84
2023-12-03T17:51:28.629Z,46.27
2023-12-03T17:54:17.517Z,46.30
2023-12-03T17:57:06.755Z,46.03
2023-12-03T17:59:56.877Z,46.23
2023-12-03T18:02:45.672Z,45.84
2023-12-03T18:05:34.374Z,46.10
2023-12-03T18:08:23.030Z,45.92
2023-12-03T18:11:11.850Z,45.81
2023-12-03T18:14:03.997Z,46.03
2023-12-03T18:16:54.195Z,46.30
2023-12-03T18:19:43.215Z,46.04
2023-12-03T18:22:32.575Z,46.27
2023-12-03T18:25:21.189Z,46.06
2023-12-03T18:28:10.863Z,46.26
2023-12-03T18:31:00.517Z,46.29
2023-12-03T18:33:50.831Z,46.27
2023-12-03T18:36:39.519Z,46.21
2023-12-03T18:39:28.164Z,45.69
2023-12-03T18:42:16.919Z,46.16
2023-12-03T18:45:06.213Z,45.74
2023-12-03T18:47:54.958Z,46.04
2023-12-03T18:50:45.297Z,46.17
2023-12-03T18:53:35.210Z,46.09
2023-12-03T18:56:24.003Z,45.97
2023-12-03T18:59:13.285Z,46.10
2023-12-03T19:02:03.348Z,46.10
2023-12-03T19:04:51.995Z,46.01
2023-12-03T19:07:42.578Z,46.23
2023-12-03T19:10:38.359Z,45.68
2023-12-03T19:13:28.264Z,46.01
2023-12-03T19:16:17.337Z,45.77
2023-12-03T19:19:06.026Z,46.10
2023-12-03T19:21:54.838Z,45.98
2023-12-03T19:24:45.293Z,46.12
2023-12-03T19:27:35.069Z,46.29
2023-12-03T19:30:24.217Z,46.29
2023-12-03T19:33:15.571Z,46.25
2023-12-03T19:36:04.331Z,45.71
2023-12-03T19:38:53.069Z,46.04
2023-12-03T19:41:44.225Z,45.83
2023-12-03T19:44:34.333Z,45.85
2023-12-03T19:47:23.356Z,46.17
2023-12-03T19:50:12.838Z,46.28
2023-12-03T19:53:01.584Z,46.27
2023-12-03T19:55:50.285Z,46.00
2023-12-03T19:58:40.469Z,45.69
2023-12-03T20:01:30.916Z,45.85
2023-12-03T20:04:19.743Z,45.76
2023-12-03T20:07:08.560Z,45.96
2023-12-03T20:09:57.295Z,46.02
2023-12-03T20:12:47.928Z,46.05
2023-12-03T20:15:41.508Z,45.66
2023-12-03T20:18:31.430Z,45.67
2023-12-03T20:21:21.700Z,45.50
2023-12-03T20:24:10.972Z,45.22
2023-12-03T20:27:00.445Z,45.07
2023-12-03T20:29:49.187Z,44.65
2023-12-03T20:32:39.646Z,44.89
2023-12-03T20:35:28.459Z,44.52
2023-12-03T20:38:17.430Z,45.13
2023-12-03T20:41:07.858Z,45.11
2023-12-03T20:43:56.517Z,45.22
2023-12-03T20:46:46.415Z,45.25
2023-12-03T20:49:36.854Z,44.28
2023-12-03T20:52:25.614Z,44.45
2023-12-03T20:55:14.612Z,44.26
2023-12-03T20:58:03.474Z,44.20
2023-12-03T21:00:52.770Z,44.07
2023-12-03T21:03:41.831Z,44.38
2023-12-03T21:06:33.306Z,44.62
2023-12-03T21:09:21.958Z,45.07
2023-12-03T21:12:10.867Z,45.16
2023-12-03T21:14:59.784Z,44.89
2023-12-03T21:17:48.834Z,45.08
2023-12-03T21:20:37.705Z,44.71
2023-12-03T21:23:27.772Z,45.04
2023-12-03T21:26:16.513Z,44.83
2023-12-03T21:29:05.206Z,44.68
2023-12-03T21:31:53.981Z,44.62
2023-12-03T21:34:42.794Z,44.33
2023-12-03T21:37:31.659Z,44.80
2023-12-03T21:40:21.849Z,44.97
2023-12-03T21:43:10.663Z,44.91
2023-12-03T21:46:02.359Z,44.93
2023-12-03T21:48:51.119Z,44.85
2023-12-03T21:51:39.867Z,44.53
2023-12-03T21:54:28.718Z,44.54
2023-12-03T21:57:18.916Z,44.26
2023-12-03T22:00:10.026Z,44.33
2023-12-03T22:02:58.816Z,44.47
2023-12-03T22:05:47.482Z,44.47
2023-12-03T22:08:36.370Z,44.97
2023-12-03T22:11:25.035Z,44.67
2023-12-03T22:14:15.714Z,45.06
2023-12-03T22:17:04.562Z,44.56
2023-12-03T22:19:53.326Z,44.86
2023-12-03T22:22:42.634Z,45.23
2023-12-03T22:25:31.473Z,45.06
2023-12-03T22:28:21.354Z,45.13
2023-12-03T22:31:11.808Z,45.05
2023-12-03T22:34:01.018Z,45.26
2023-12-03T22:36:49.952Z,45.35
2023-12-03T22:39:38.732Z,45.13
2023-12-03T22:42:27.726Z,45.74
2023-12-03T22:45:16.669Z,45.77
2023-12-03T22:48:07.533Z,45.49
2023-12-03T22:50:56.177Z,45.47
2023-12-03T22:53:45.211Z,45.84
2023-12-03T22:56:33.905Z,45.77
2023-12-03T22:59:22.564Z,45.90
2023-12-03T23:02:11.265Z,46.11
2023-12-03T23:05:01.949Z,46.11
2023-12-03T23:07:50.940Z,46.20
2023-12-03T23:10:39.704Z,46.28
2023-12-03T23:13:28.675Z,46.35
2023-12-03T23:16:17.790Z,46.18
2023-12-03T23:19:06.719Z,46.75
2023-12-03T23:21:56.992Z,46.22
2023-12-03T23:24:48.724Z,46.80
2023-12-03T23:27:37.602Z,46.57
2023-12-03T23:30:26.470Z,46.82
2023-12-03T23:33:16.045Z,46.85
2023-12-03T23:36:05.089Z,46.73
2023-12-03T23:38:55.268Z,46.49
2023-12-03T23:41:45.381Z,46.54
2023-12-03T23:44:34.110Z,46.58
2023-12-03T23:47:22.901Z,46.47
2023-12-03T23:50:11.904Z,46.37
2023-12-03T23:53:02.251Z,46.44
2023-12-03T23:55:52.333Z,46.58
2023-12-03T23:58:41.067Z,46.31
